Time;durP1;ratioP1;P1;durP2;ratioP2;P2;SDS_P1;SDS_P2;PMS_P1;PMS_P2;Temp;Humidity;BMP_temperature;BMP_pressure;BME280_temperature;BME280_humidity;BME280_pressure;Samples;Min_cycle;Max_cycle;Signal;HPM_P1;HPM_P2
2023/03/12 00:01:11;;;;;;;12.57;12.17;;;20.60;46.10;;;;;;5031590;28;20484;-59
2023/03/12 00:03:39;;;;;;;13.30;12.80;;;20.60;46.10;;;;;;5031298;28;20481;-55
2023/03/12 00:06:07;;;;;;;13.07;12.40;;;20.60;46.10;;;;;;5031510;28;20536;-56
2023/03/12 00:08:34;;;;;;;12.53;12.03;;;20.60;46.40;;;;;;5031351;28;20907;-57
2023/03/12 00:11:06;;;;;;;14.10;13.40;;;20.60;46.20;;;;;;5031532;28;20500;-59
2023/03/12 00:13:33;;;;;;;12.27;11.87;;;20.60;46.20;;;;;;5031324;28;20495;-58
2023/03/12 00:16:04;;;;;;;12.10;11.70;;;20.50;46.10;;;;;;5031040;28;20984;-59
2023/03/12 00:18:31;;;;;;;12.30;12.00;;;20.50;46.10;;;;;;5031421;28;20560;-59
2023/03/12 00:20:58;;;;;;;13.57;12.87;;;20.50;46.20;;;;;;5031297;28;20488;-58
2023/03/12 00:23:27;;;;;;;12.50;12.10;;;20.50;46.20;;;;;;5030906;28;20476;-60
2023/03/12 00:25:54;;;;;;;13.70;13.10;;;20.50;46.20;;;;;;5031383;28;20636;-59
2023/03/12 00:28:21;;;;;;;12.40;12.00;;;20.50;46.30;;;;;;5031212;28;20599;-57
2023/03/12 00:30:48;;;;;;;12.97;12.57;;;20.40;46.20;;;;;;5031324;28;20491;-55
2023/03/12 00:33:15;;;;;;;12.30;11.80;;;20.40;46.10;;;;;;5030951;28;20485;-59
2023/03/12 00:35:41;;;;;;;11.50;11.20;;;20.50;46.20;;;;;;5031371;28;20520;-59
2023/03/12 00:38:08;;;;;;;12.37;11.97;;;20.40;46.20;;;;;;5031120;28;20500;-58
2023/03/12 00:40:38;;;;;;;12.07;11.57;;;20.40;46.20;;;;;;5031267;28;20480;-59
2023/03/12 00:43:05;;;;;;;12.30;11.90;;;20.40;46.20;;;;;;5030905;28;20540;-59
2023/03/12 00:45:31;;;;;;;12.93;12.43;;;20.40;46.10;;;;;;5031271;28;20473;-59
2023/03/12 00:47:58;;;;;;;12.00;11.67;;;20.40;46.00;;;;;;5032081;28;20512;-55
2023/03/12 00:50:25;;;;;;;11.90;11.50;;;20.40;46.00;;;;;;5034908;28;20484;-58
2023/03/12 00:52:52;;;;;;;12.63;12.13;;;20.40;45.90;;;;;;5034703;28;21109;-60
2023/03/12 00:55:19;;;;;;;13.10;12.60;;;20.40;45.90;;;;;;5034989;28;20512;-59
2023/03/12 00:57:47;;;;;;;12.13;11.73;;;20.40;45.90;;;;;;5034908;28;20505;-58
2023/03/12 01:00:15;;;;;;;12.40;11.90;;;20.50;46.50;;;;;;5034764;28;20485;-59
2023/03/12 01:02:42;;;;;;;12.37;11.97;;;20.40;45.90;;;;;;5034510;28;20484;-57
2023/03/12 01:05:11;;;;;;;12.17;11.77;;;20.40;45.90;;;;;;5034292;28;20599;-58
2023/03/12 01:07:38;;;;;;;12.00;11.53;;;20.40;46.00;;;;;;5034504;28;20516;-56
2023/03/12 01:10:07;;;;;;;12.20;11.53;;;20.40;45.90;;;;;;5034456;28;20456;-59
2023/03/12 01:12:33;;;;;;;13.00;12.53;;;20.40;45.90;;;;;;5034334;28;20463;-56
2023/03/12 01:15:02;;;;;;;11.30;10.80;;;20.40;45.90;;;;;;5034463;28;20512;-57
2023/03/12 01:17:29;;;;;;;13.07;12.67;;;20.40;45.90;;;;;;5034087;28;20504;-57
2023/03/12 01:19:56;;;;;;;12.57;12.17;;;20.40;45.90;;;;;;5034404;28;20527;-57
2023/03/12 01:22:23;;;;;;;12.90;12.30;;;20.40;45.90;;;;;;5034211;28;20469;-56
2023/03/12 01:24:50;;;;;;;12.57;12.10;;;20.30;45.90;;;;;;5034556;28;20556;-56
2023/03/12 01:27:17;;;;;;;11.70;11.30;;;20.40;46.00;;;;;;5034279;28;20500;-59
2023/03/12 01:29:44;;;;;;;12.57;12.17;;;20.30;45.90;;;;;;5034064;28;20477;-60
2023/03/12 01:32:12;;;;;;;12.50;12.00;;;20.30;45.90;;;;;;5034150;28;20473;-59
2023/03/12 01:34:39;;;;;;;12.17;11.77;;;20.30;45.90;;;;;;5034028;28;20481;-58
2023/03/12 01:37:07;;;;;;;12.17;11.80;;;20.30;46.00;;;;;;5033963;28;20461;-56
2023/03/12 01:39:34;;;;;;;14.00;13.40;;;20.30;46.00;;;;;;5034024;28;20488;-56
2023/03/12 01:42:01;;;;;;;12.50;12.10;;;20.30;46.00;;;;;;5033856;28;20488;-58
2023/03/12 01:44:28;;;;;;;12.07;11.67;;;20.20;46.00;;;;;;5033944;28;20484;-57
2023/03/12 01:46:55;;;;;;;13.20;12.70;;;20.20;46.00;;;;;;5033782;28;20500;-58
2023/03/12 01:49:25;;;;;;;12.83;12.33;;;20.30;46.00;;;;;;5033649;28;20491;-57
2023/03/12 01:51:56;;;;;;;12.33;11.90;;;20.20;46.00;;;;;;5033699;28;20852;-59
2023/03/12 01:54:28;;;;;;;12.37;11.87;;;20.20;46.00;;;;;;5033681;28;20527;-56
2023/03/12 01:56:56;;;;;;;12.20;11.70;;;20.20;46.10;;;;;;5033621;28;20995;-58
2023/03/12 01:59:26;;;;;;;12.50;12.10;;;20.20;46.10;;;;;;5033661;28;20473;-59
2023/03/12 02:01:53;;;;;;;11.77;11.40;;;20.20;46.10;;;;;;5033306;28;20636;-56
2023/03/12 02:04:25;;;;;;;11.30;10.90;;;20.20;46.10;;;;;;5033768;28;20491;-56
2023/03/12 02:07:00;;;;;;;12.33;11.73;;;20.20;46.10;;;;;;5033610;28;20461;-56
2023/03/12 02:09:28;;;;;;;11.73;11.43;;;20.20;46.10;;;;;;5033496;28;20947;-57
2023/03/12 02:11:55;;;;;;;12.20;11.70;;;20.10;46.00;;;;;;5033065;28;20573;-59
2023/03/12 02:14:22;;;;;;;12.70;12.20;;;20.10;46.00;;;;;;5033223;28;20956;-59
2023/03/12 02:16:49;;;;;;;12.43;12.00;;;20.10;45.90;;;;;;5033341;28;20499;-56
2023/03/12 02:19:23;;;;;;;12.60;12.00;;;20.20;46.00;;;;;;5033305;28;20540;-55
2023/03/12 02:21:51;;;;;;;12.40;12.00;;;20.20;45.90;;;;;;5033176;28;20520;-56
2023/03/12 02:24:26;;;;;;;12.07;11.70;;;20.20;45.90;;;;;;5032909;28;20533;-59
2023/03/12 02:26:56;;;;;;;11.93;11.63;;;20.20;45.90;;;;;;5033068;28;20496;-58
2023/03/12 02:29:24;;;;;;;11.27;10.77;;;20.20;45.90;;;;;;5033159;28;20880;-58
2023/03/12 02:31:54;;;;;;;12.27;11.87;;;20.20;45.90;;;;;;5032995;28;20449;-56
2023/03/12 02:34:21;;;;;;;11.97;11.57;;;20.20;45.90;;;;;;5032735;28;20468;-56
2023/03/12 02:36:49;;;;;;;12.40;11.90;;;20.20;45.90;;;;;;5032972;28;20517;-57
2023/03/12 02:39:16;;;;;;;12.00;11.63;;;20.20;45.80;;;;;;5033019;28;20476;-57
2023/03/12 02:41:46;;;;;;;11.23;10.90;;;20.20;45.90;;;;;;5032496;28;21159;-58
2023/03/12 02:44:18;;;;;;;12.00;11.60;;;20.20;45.80;;;;;;5032864;28;20531;-59
2023/03/12 02:46:48;;;;;;;11.93;11.60;;;20.20;45.80;;;;;;5032536;28;20473;-58
2023/03/12 02:49:16;;;;;;;12.27;11.87;;;20.20;45.80;;;;;;5033236;28;20469;-58
2023/03/12 02:51:44;;;;;;;11.93;11.53;;;20.20;45.80;;;;;;5032316;28;20953;-55
2023/03/12 02:54:12;;;;;;;11.80;11.50;;;20.20;45.80;;;;;;5032612;28;20469;-58
2023/03/12 02:56:40;;;;;;;12.67;12.27;;;20.20;45.80;;;;;;5032460;28;20527;-58
2023/03/12 02:59:08;;;;;;;11.60;11.30;;;20.20;45.90;;;;;;5032317;28;20491;-59
2023/03/12 03:01:37;;;;;;;12.53;12.13;;;20.20;45.80;;;;;;5032440;28;20507;-59
2023/03/12 03:04:05;;;;;;;11.90;11.60;;;20.20;45.80;;;;;;5032338;28;20899;-54
2023/03/12 03:06:33;;;;;;;11.87;11.53;;;20.20;45.80;;;;;;5032348;28;20469;-57
2023/03/12 03:09:00;;;;;;;11.40;11.10;;;20.10;45.70;;;;;;5032114;28;20481;-57
2023/03/12 03:11:27;;;;;;;11.10;10.70;;;20.10;46.20;;;;;;5031771;28;20473;-56
2023/03/12 03:13:54;;;;;;;11.43;11.03;;;20.20;45.80;;;;;;5032583;28;20481;-56
2023/03/12 03:16:22;;;;;;;11.13;10.83;;;20.10;45.70;;;;;;5032138;28;20935;-58
2023/03/12 03:18:50;;;;;;;11.10;10.70;;;20.10;45.70;;;;;;5031736;28;20501;-58
2023/03/12 03:21:17;;;;;;;11.03;10.63;;;20.10;45.70;;;;;;5032007;28;20488;-58
2023/03/12 03:23:45;;;;;;;11.73;11.43;;;20.10;45.80;;;;;;5031966;28;20481;-56
2023/03/12 03:26:12;;;;;;;11.80;11.40;;;20.10;45.70;;;;;;5032147;28;20481;-56
2023/03/12 03:28:39;;;;;;;11.20;10.80;;;20.10;45.80;;;;;;5032125;28;20899;-58
2023/03/12 03:31:06;;;;;;;11.80;11.40;;;20.10;45.80;;;;;;5031839;28;20488;-55
2023/03/12 03:33:36;;;;;;;12.00;11.60;;;20.10;45.80;;;;;;5031829;28;20469;-57
2023/03/12 03:36:06;;;;;;;11.00;10.70;;;20.10;45.80;;;;;;5031855;28;20568;-55
2023/03/12 03:38:34;;;;;;;10.70;10.40;;;20.00;45.80;;;;;;5031764;28;20500;-56
2023/03/12 03:41:01;;;;;;;11.83;11.33;;;20.10;45.90;;;;;;5031894;28;20491;-58
2023/03/12 03:43:28;;;;;;;11.37;11.00;;;20.10;45.90;;;;;;5031359;28;20446;-57
2023/03/12 03:45:59;;;;;;;11.30;10.90;;;20.00;45.80;;;;;;5031686;28;20473;-54
2023/03/12 03:48:26;;;;;;;11.33;10.93;;;20.00;45.80;;;;;;5031562;28;20556;-58
2023/03/12 03:50:53;;;;;;;10.40;10.10;;;20.00;45.80;;;;;;5031805;28;20536;-58
2023/03/12 03:53:21;;;;;;;11.43;11.10;;;20.00;45.80;;;;;;5031740;28;21009;-58
2023/03/12 03:55:48;;;;;;;11.27;10.90;;;20.00;45.80;;;;;;5031604;28;20575;-58
2023/03/12 03:58:15;;;;;;;11.27;10.97;;;20.00;45.80;;;;;;5031698;28;20496;-56
2023/03/12 04:00:45;;;;;;;11.20;10.90;;;20.00;45.70;;;;;;5031319;28;20532;-57
2023/03/12 04:03:12;;;;;;;10.90;10.60;;;20.00;45.70;;;;;;5030818;28;20446;-58
2023/03/12 04:05:43;;;;;;;11.37;11.07;;;20.00;45.70;;;;;;5020534;28;20822;-56
2023/03/12 04:08:10;;;;;;;11.93;11.53;;;20.00;45.70;;;;;;5031414;28;20472;-58
2023/03/12 04:10:39;;;;;;;11.17;10.83;;;20.00;45.70;;;;;;5031511;28;20571;-57
2023/03/12 04:13:06;;;;;;;12.30;11.80;;;20.00;45.70;;;;;;5031127;28;20531;-58
2023/03/12 04:15:33;;;;;;;11.70;11.30;;;20.00;45.70;;;;;;5031360;28;20492;-59
2023/03/12 04:17:59;;;;;;;11.53;11.23;;;20.00;45.70;;;;;;5031406;28;20500;-58
2023/03/12 04:20:26;;;;;;;11.17;10.70;;;20.00;45.70;;;;;;5031653;28;20453;-57
2023/03/12 04:22:53;;;;;;;10.90;10.60;;;20.00;45.80;;;;;;5032082;28;20481;-58
2023/03/12 04:25:20;;;;;;;10.80;10.50;;;20.00;45.80;;;;;;5035031;28;20432;-59
2023/03/12 04:27:49;;;;;;;11.20;10.90;;;20.00;45.80;;;;;;5035317;28;20503;-59
2023/03/12 04:30:15;;;;;;;11.30;10.90;;;20.00;45.80;;;;;;5048355;28;20449;-59
2023/03/12 04:32:42;;;;;;;11.07;10.77;;;20.00;45.70;;;;;;5038581;28;20469;-59
2023/03/12 04:35:09;;;;;;;11.13;10.83;;;20.00;45.70;;;;;;5034725;28;20480;-59
2023/03/12 04:37:36;;;;;;;11.03;10.73;;;20.00;45.70;;;;;;5035371;28;20499;-59
2023/03/12 04:40:06;;;;;;;10.37;9.97;;;20.00;45.60;;;;;;5035891;28;20480;-57
2023/03/12 04:42:34;;;;;;;11.03;10.73;;;20.00;45.60;;;;;;5035043;28;20480;-58
2023/03/12 04:45:03;;;;;;;10.87;10.57;;;20.00;45.60;;;;;;5034768;28;20483;-58
2023/03/12 04:47:30;;;;;;;11.60;11.20;;;20.00;45.60;;;;;;5034970;28;20472;-55
2023/03/12 04:49:57;;;;;;;12.00;11.27;;;20.00;45.60;;;;;;5035089;28;20552;-55
2023/03/12 04:52:25;;;;;;;11.83;11.43;;;20.00;45.50;;;;;;5034661;28;20478;-58
2023/03/12 04:54:52;;;;;;;10.73;10.43;;;20.00;45.50;;;;;;5034919;28;20441;-58
2023/03/12 04:57:19;;;;;;;11.00;10.60;;;20.00;45.50;;;;;;5034649;28;20579;-57
2023/03/12 04:59:46;;;;;;;11.80;11.40;;;20.00;45.60;;;;;;5034696;28;20872;-58
2023/03/12 05:02:14;;;;;;;11.60;11.30;;;20.00;45.50;;;;;;5034337;28;20535;-56
2023/03/12 05:04:41;;;;;;;10.73;10.43;;;20.00;45.60;;;;;;5034832;28;20472;-58
2023/03/12 05:07:08;;;;;;;11.60;11.00;;;20.00;45.50;;;;;;5034497;28;20492;-59
2023/03/12 05:09:35;;;;;;;11.20;10.87;;;20.00;45.50;;;;;;5034601;28;20956;-58
2023/03/12 05:12:02;;;;;;;10.70;10.40;;;20.00;45.60;;;;;;5034433;28;20487;-58
2023/03/12 05:14:29;;;;;;;10.80;10.50;;;20.00;45.60;;;;;;5034326;28;20996;-56
2023/03/12 05:16:56;;;;;;;11.23;10.83;;;20.00;45.60;;;;;;5034298;28;20567;-57
2023/03/12 05:19:24;;;;;;;10.70;10.40;;;19.90;45.50;;;;;;5034565;28;20484;-59
2023/03/12 05:21:51;;;;;;;11.40;11.00;;;19.90;45.50;;;;;;5034282;28;20948;-58
2023/03/12 05:24:18;;;;;;;10.80;10.50;;;19.90;45.50;;;;;;5034324;28;20546;-57
2023/03/12 05:26:44;;;;;;;10.23;9.93;;;19.90;45.50;;;;;;5034127;28;20445;-57
2023/03/12 05:29:11;;;;;;;11.63;11.23;;;19.90;45.60;;;;;;5034451;28;20481;-59
2023/03/12 05:31:38;;;;;;;11.00;10.70;;;19.90;45.60;;;;;;5033355;28;20476;-56
2023/03/12 05:34:05;;;;;;;10.90;10.53;;;19.90;45.60;;;;;;5033486;28;20485;-58
2023/03/12 05:36:34;;;;;;;11.27;10.87;;;19.90;45.60;;;;;;5033921;28;20530;-60
2023/03/12 05:39:00;;;;;;;10.90;10.60;;;19.90;45.60;;;;;;5033756;28;20990;-59
2023/03/12 05:41:29;;;;;;;12.03;11.53;;;19.90;45.50;;;;;;5033991;28;20499;-55
2023/03/12 05:43:57;;;;;;;11.47;11.17;;;19.90;45.50;;;;;;5033908;28;20479;-54
2023/03/12 05:46:26;;;;;;;11.83;11.50;;;19.90;45.50;;;;;;5033921;28;20495;-58
2023/03/12 05:48:53;;;;;;;11.93;11.50;;;19.90;45.40;;;;;;5033803;28;20512;-57
2023/03/12 05:51:20;;;;;;;11.20;10.90;;;19.90;45.50;;;;;;5033529;28;20477;-56
2023/03/12 05:53:48;;;;;;;12.20;11.80;;;19.90;45.50;;;;;;5033800;28;20488;-56
2023/03/12 05:56:17;;;;;;;12.17;11.83;;;19.90;45.50;;;;;;5033717;28;20559;-55
2023/03/12 05:58:44;;;;;;;12.03;11.70;;;19.90;45.50;;;;;;5033859;28;20834;-58
2023/03/12 06:01:13;;;;;;;12.20;11.80;;;19.90;45.50;;;;;;5033342;28;20499;-54
2023/03/12 06:03:41;;;;;;;11.23;10.93;;;19.90;45.40;;;;;;5033673;28;20485;-59
2023/03/12 06:06:08;;;;;;;10.90;10.60;;;19.90;45.50;;;;;;5033396;28;20449;-58
2023/03/12 06:08:35;;;;;;;11.30;11.00;;;19.90;45.50;;;;;;5033476;28;20504;-58
2023/03/12 06:11:04;;;;;;;12.23;11.73;;;19.90;45.40;;;;;;5033478;28;21034;-57
2023/03/12 06:13:31;;;;;;;11.97;11.67;;;19.90;45.50;;;;;;5033166;28;20971;-58
2023/03/12 06:16:03;;;;;;;12.17;11.87;;;19.90;45.40;;;;;;5033378;28;20513;-57
2023/03/12 06:18:30;;;;;;;12.57;12.10;;;19.90;45.40;;;;;;5033371;28;20466;-58
2023/03/12 06:21:08;;;;;;;12.10;11.80;;;19.90;45.40;;;;;;5032547;28;20488;-55
2023/03/12 06:23:35;;;;;;;12.40;12.10;;;19.90;45.40;;;;;;5032440;28;20445;-55
2023/03/12 06:26:04;;;;;;;11.60;11.30;;;19.90;45.40;;;;;;5013660;28;20476;-56
2023/03/12 06:28:31;;;;;;;11.70;11.40;;;19.90;45.40;;;;;;5013205;28;20493;-58
2023/03/12 06:30:58;;;;;;;11.00;10.70;;;19.90;45.40;;;;;;5013346;28;20477;-55
2023/03/12 06:33:25;;;;;;;10.50;10.20;;;19.90;45.50;;;;;;5013178;28;20490;-58
2023/03/12 06:35:55;;;;;;;10.73;10.43;;;19.90;45.50;;;;;;5030874;28;20484;-55
2023/03/12 06:38:22;;;;;;;11.60;11.20;;;19.90;45.50;;;;;;5032823;28;20468;-58
2023/03/12 06:40:57;;;;;;;10.47;10.27;;;19.90;45.60;;;;;;5033000;28;20480;-58
2023/03/12 06:43:27;;;;;;;10.77;10.47;;;19.90;45.60;;;;;;5032619;28;20937;-54
2023/03/12 06:45:55;;;;;;;11.77;11.47;;;19.90;45.60;;;;;;5032277;28;20540;-56
2023/03/12 06:48:22;;;;;;;11.23;10.93;;;19.80;46.00;;;;;;5032377;28;20513;-58
2023/03/12 06:50:49;;;;;;;11.10;10.70;;;19.90;45.60;;;;;;5032769;28;20473;-59
2023/03/12 06:53:16;;;;;;;11.03;10.63;;;19.90;45.60;;;;;;5032460;28;20453;-55
2023/03/12 06:55:46;;;;;;;10.53;10.27;;;19.90;45.60;;;;;;5037049;28;20476;-53
2023/03/12 06:58:13;;;;;;;10.80;10.50;;;19.90;46.20;;;;;;5039393;28;20880;-54
2023/03/12 07:00:42;;;;;;;11.23;10.93;;;20.00;46.50;;;;;;5038783;28;20483;-56
2023/03/12 07:03:09;;;;;;;11.90;11.60;;;20.10;46.50;;;;;;5044813;28;20452;-56
2023/03/12 07:05:36;;;;;;;11.30;10.90;;;20.20;46.60;;;;;;5038335;28;20238;-58
2023/03/12 07:08:03;;;;;;;10.35;9.95;;;20.30;46.70;;;;;;5037732;28;20468;-58
2023/03/12 07:10:30;;;;;;;10.80;10.40;;;20.40;46.90;;;;;;5032744;28;20711;-54
2023/03/12 07:12:57;;;;;;;11.77;11.40;;;20.60;46.90;;;;;;5034156;28;20481;-53
2023/03/12 07:15:24;;;;;;;11.40;11.10;;;20.70;46.90;;;;;;5033117;28;20607;-52
2023/03/12 07:17:52;;;;;;;12.93;12.43;;;20.80;46.80;;;;;;5032659;28;20573;-52
2023/03/12 07:20:19;;;;;;;9.95;9.65;;;20.90;46.70;;;;;;5024290;28;20478;-54
2023/03/12 07:22:46;;;;;;;12.10;11.80;;;21.00;47.00;;;;;;5031066;28;20218;-58
2023/03/12 07:25:13;;;;;;;12.73;12.40;;;21.20;46.90;;;;;;5032108;28;20477;-58
2023/03/12 07:27:40;;;;;;;13.73;13.17;;;21.30;46.40;;;;;;5032175;28;21220;-55
2023/03/12 07:30:08;;;;;;;12.50;12.00;;;21.40;46.20;;;;;;5031953;28;21055;-55
2023/03/12 07:32:35;;;;;;;12.17;11.87;;;21.40;46.00;;;;;;5031389;28;20485;-56
2023/03/12 07:35:04;;;;;;;12.70;12.30;;;21.40;45.90;;;;;;5031800;28;20442;-55
2023/03/12 07:37:31;;;;;;;12.80;12.23;;;21.50;46.40;;;;;;5034984;28;20477;-55
2023/03/12 07:39:58;;;;;;;12.90;12.40;;;21.60;45.90;;;;;;5031893;28;20877;-54
2023/03/12 07:42:25;;;;;;;11.80;11.50;;;21.60;45.80;;;;;;5033080;28;20531;-51
2023/03/12 07:44:52;;;;;;;11.27;10.97;;;21.70;45.80;;;;;;5031461;28;20539;-52
2023/03/12 07:47:18;;;;;;;12.37;12.00;;;21.70;45.70;;;;;;5031901;28;20504;-56
2023/03/12 07:49:45;;;;;;;11.90;11.60;;;21.80;45.60;;;;;;5032828;28;20480;-53
2023/03/12 07:52:14;;;;;;;13.00;12.23;;;21.80;45.50;;;;;;5032286;28;20472;-57
2023/03/12 07:54:41;;;;;;;12.37;11.97;;;21.80;45.40;;;;;;5032282;28;20453;-52
2023/03/12 07:57:07;;;;;;;11.87;11.57;;;21.90;45.40;;;;;;5033543;28;20530;-54
2023/03/12 07:59:34;;;;;;;11.97;11.60;;;21.90;45.30;;;;;;5032416;28;20511;-53
2023/03/12 08:02:01;;;;;;;13.03;12.67;;;22.00;45.30;;;;;;5032939;28;20477;-52
2023/03/12 08:04:30;;;;;;;10.05;9.75;;;22.00;45.30;;;;;;5032139;28;20532;-56
2023/03/12 08:07:01;;;;;;;12.60;12.20;;;22.10;46.70;;;;;;5036085;28;20250;-51
2023/03/12 08:09:40;;;;;;;12.40;11.97;;;22.10;45.50;;;;;;5016315;28;20537;-57
2023/03/12 08:12:12;;;;;;;10.53;10.23;;;22.20;46.20;;;;;;5030541;28;20817;-52
2023/03/12 08:14:42;;;;;;;11.50;11.20;;;22.30;46.90;;;;;;5031543;28;20710;-57
2023/03/12 08:17:17;;;;;;;11.70;11.40;;;22.30;46.80;;;;;;5035623;28;20539;-52
2023/03/12 08:19:46;;;;;;;11.13;10.83;;;22.30;45.30;;;;;;5014064;28;20445;-55
2023/03/12 08:22:15;;;;;;;11.40;11.10;;;22.30;45.00;;;;;;5012748;28;20451;-56
2023/03/12 08:24:44;;;;;;;11.70;11.20;;;22.30;44.90;;;;;;5032580;28;20973;-57
2023/03/12 08:27:13;;;;;;;12.50;11.90;;;22.40;44.90;;;;;;5032571;28;20890;-59
2023/03/12 08:29:42;;;;;;;12.13;11.83;;;22.40;44.70;;;;;;5031134;28;20487;-58
2023/03/12 08:32:12;;;;;;;12.20;11.67;;;22.40;44.80;;;;;;5031819;28;20506;-57
2023/03/12 08:34:42;;;;;;;11.83;11.30;;;22.40;45.20;;;;;;5030421;28;20816;-56
2023/03/12 08:37:09;;;;;;;12.03;11.23;;;22.50;45.90;;;;;;5030271;28;20475;-55
2023/03/12 08:39:40;;;;;;;14.10;13.40;;;22.60;50.00;;;;;;5031463;28;20484;-54
2023/03/12 08:42:11;;;;;;;13.60;12.83;;;22.60;50.70;;;;;;5031983;28;20459;-53
2023/03/12 08:44:41;;;;;;;13.97;13.37;;;22.60;49.10;;;;;;5035367;28;20968;-54
2023/03/12 08:47:08;;;;;;;14.40;13.37;;;22.70;49.40;;;;;;5034372;28;20476;-55
2023/03/12 08:49:35;;;;;;;14.00;12.97;;;22.70;50.00;;;;;;5037280;28;20480;-54
2023/03/12 08:52:02;;;;;;;14.57;13.97;;;22.80;51.60;;;;;;5035890;28;20488;-51
2023/03/12 08:54:29;;;;;;;13.47;12.87;;;22.80;51.80;;;;;;5035579;28;20474;-51
2023/03/12 08:56:56;;;;;;;14.00;13.40;;;22.80;51.90;;;;;;5034832;28;20535;-53
2023/03/12 08:59:24;;;;;;;13.70;13.10;;;22.80;51.70;;;;;;5033916;28;20495;-50
2023/03/12 09:01:51;;;;;;;13.47;12.73;;;22.90;51.60;;;;;;5033322;28;20488;-52
2023/03/12 09:04:18;;;;;;;13.90;13.20;;;22.90;52.60;;;;;;5032429;28;20833;-52
2023/03/12 09:06:47;;;;;;;13.37;12.70;;;22.90;51.10;;;;;;5032464;28;20504;-49
2023/03/12 09:09:14;;;;;;;14.63;13.83;;;22.90;51.30;;;;;;5021002;28;20491;-53
2023/03/12 09:11:41;;;;;;;14.23;13.67;;;22.90;50.50;;;;;;5040788;28;20531;-52
2023/03/12 09:14:08;;;;;;;12.43;11.93;;;22.90;50.30;;;;;;5036881;28;20528;-56
2023/03/12 09:16:36;;;;;;;14.07;13.23;;;23.00;50.80;;;;;;5035953;28;20449;-57
2023/03/12 09:19:04;;;;;;;13.97;13.37;;;23.10;50.50;;;;;;5037574;28;20446;-54
2023/03/12 09:21:31;;;;;;;11.77;10.90;;;23.10;50.20;;;;;;5034637;28;21028;-52
2023/03/12 09:23:58;;;;;;;14.37;13.50;;;23.20;50.10;;;;;;5034740;28;20230;-51
2023/03/12 09:26:25;;;;;;;14.50;13.60;;;23.30;50.00;;;;;;5034730;28;20444;-52
2023/03/12 09:28:52;;;;;;;13.10;12.60;;;23.30;49.80;;;;;;5034914;28;20500;-54
2023/03/12 09:31:19;;;;;;;14.00;13.50;;;23.30;49.60;;;;;;5034209;28;20481;-53
2023/03/12 09:33:48;;;;;;;12.37;11.87;;;23.30;49.50;;;;;;5034108;28;20917;-54
2023/03/12 09:36:15;;;;;;;13.07;12.57;;;23.30;49.30;;;;;;5033792;28;20488;-54
2023/03/12 09:38:41;;;;;;;13.23;12.77;;;23.30;49.20;;;;;;5033770;28;20523;-58
2023/03/12 09:41:18;;;;;;;12.17;11.70;;;23.30;49.10;;;;;;5033856;28;20480;-54
2023/03/12 09:43:52;;;;;;;12.67;12.17;;;23.30;49.00;;;;;;5016069;28;20813;-53
2023/03/12 09:46:24;;;;;;;12.60;12.10;;;23.30;48.80;;;;;;5034013;28;20448;-53
2023/03/12 09:48:56;;;;;;;13.27;12.47;;;23.40;48.80;;;;;;5033666;28;20468;-54
2023/03/12 09:51:31;;;;;;;13.33;12.70;;;23.40;48.70;;;;;;5034394;28;20491;-52
2023/03/12 09:54:03;;;;;;;13.50;12.90;;;23.40;48.60;;;;;;5035272;28;20532;-57
2023/03/12 09:56:30;;;;;;;13.67;13.17;;;23.40;48.50;;;;;;5034792;28;20480;-57
2023/03/12 09:58:57;;;;;;;13.50;13.00;;;23.50;48.50;;;;;;5033840;28;20619;-55
2023/03/12 10:01:37;;;;;;;12.73;12.27;;;23.50;48.40;;;;;;5034541;28;20477;-58
2023/03/12 10:04:20;;;;;;;12.50;12.10;;;23.60;48.50;;;;;;5035787;28;20940;-56
2023/03/12 10:06:52;;;;;;;12.30;12.00;;;23.60;48.50;;;;;;5035926;28;20506;-53
2023/03/12 10:09:34;;;;;;;11.50;11.20;;;23.60;48.40;;;;;;5033781;28;20492;-57
2023/03/12 10:12:10;;;;;;;12.40;12.00;;;23.60;48.10;;;;;;5033550;28;20449;-55
2023/03/12 10:14:48;;;;;;;12.50;12.00;;;23.70;48.00;;;;;;5033700;28;20960;-56
2023/03/12 10:17:28;;;;;;;12.50;12.00;;;23.70;48.00;;;;;;5033814;28;20527;-54
2023/03/12 10:20:31;;;;;;;12.87;12.27;;;23.80;47.90;;;;;;5033460;28;20484;-57
2023/03/12 10:23:04;;;;;;;12.30;11.90;;;23.80;47.80;;;;;;5018746;28;20480;-51
2023/03/12 10:25:40;;;;;;;13.00;12.60;;;23.80;47.70;;;;;;5039686;28;20484;-50
2023/03/12 10:28:14;;;;;;;13.47;12.90;;;23.80;47.50;;;;;;5040913;28;20491;-55
2023/03/12 10:30:46;;;;;;;12.13;11.73;;;23.80;47.40;;;;;;5040168;28;20453;-50
2023/03/12 10:33:16;;;;;;;12.47;12.07;;;23.80;47.40;;;;;;5041185;28;20518;-51
2023/03/12 10:35:45;;;;;;;13.53;12.93;;;23.90;47.30;;;;;;5039677;28;20499;-52
2023/03/12 10:38:17;;;;;;;12.63;12.20;;;23.90;47.30;;;;;;5038832;28;20480;-52
2023/03/12 10:40:44;;;;;;;12.23;11.83;;;23.90;47.70;;;;;;5039703;28;20453;-51
2023/03/12 10:43:12;;;;;;;12.27;11.70;;;24.00;47.20;;;;;;5037161;28;20473;-50
2023/03/12 10:45:44;;;;;;;11.70;11.40;;;24.00;47.10;;;;;;5040983;28;20441;-52
2023/03/12 10:48:19;;;;;;;11.17;10.83;;;24.00;46.90;;;;;;5041558;28;20465;-51
2023/03/12 10:51:01;;;;;;;12.10;11.60;;;24.10;47.00;;;;;;5041614;28;20445;-53
2023/03/12 10:53:31;;;;;;;9.82;9.52;;;24.10;47.00;;;;;;5033809;28;20517;-53
2023/03/12 10:55:59;;;;;;;13.10;12.60;;;24.10;46.70;;;;;;5041586;28;20202;-52
2023/03/12 10:58:32;;;;;;;13.50;13.00;;;24.10;47.40;;;;;;5040703;28;20530;-53
2023/03/12 11:01:01;;;;;;;12.67;12.37;;;24.20;47.20;;;;;;5040992;28;20932;-51
2023/03/12 11:03:29;;;;;;;13.50;13.10;;;24.20;47.10;;;;;;5040794;28;20445;-53
2023/03/12 11:05:59;;;;;;;13.87;13.47;;;24.20;46.90;;;;;;5041904;28;20449;-52
2023/03/12 11:08:28;;;;;;;12.30;11.90;;;24.20;47.00;;;;;;5040339;28;20457;-51
2023/03/12 11:10:56;;;;;;;12.73;12.30;;;24.20;47.00;;;;;;5043242;28;20453;-51
2023/03/12 11:13:29;;;;;;;13.20;12.80;;;24.20;47.10;;;;;;5035403;28;20465;-51
2023/03/12 11:15:57;;;;;;;13.47;12.97;;;24.20;46.60;;;;;;5040391;28;20483;-51
2023/03/12 11:18:33;;;;;;;13.57;13.18;;;24.10;46.30;;;;;;5037100;28;21018;-53
2023/03/12 11:21:19;;;;;;;12.23;11.90;;;24.00;46.40;;;;;;5032419;28;20668;-56
2023/03/12 11:24:05;;;;;;;12.67;12.37;;;24.00;46.70;;;;;;5032236;28;20481;-57
2023/03/12 11:26:37;;;;;;;13.30;12.80;;;23.90;46.50;;;;;;5033384;28;20437;-53
2023/03/12 11:29:10;;;;;;;12.57;12.17;;;23.90;46.80;;;;;;5034428;28;20461;-56
2023/03/12 11:31:42;;;;;;;12.53;12.13;;;24.00;47.10;;;;;;5032867;28;20846;-53
2023/03/12 11:34:20;;;;;;;13.60;13.20;;;24.10;46.90;;;;;;5033674;28;20472;-52
2023/03/12 11:36:55;;;;;;;13.23;12.83;;;24.10;46.90;;;;;;5034154;28;20502;-51
2023/03/12 11:39:31;;;;;;;13.83;13.43;;;24.00;47.00;;;;;;5032803;28;20530;-51
2023/03/12 11:42:11;;;;;;;13.20;12.70;;;24.00;46.80;;;;;;5032227;28;20967;-52
2023/03/12 11:44:51;;;;;;;12.70;12.20;;;23.90;46.50;;;;;;5031889;28;20485;-52
2023/03/12 11:47:27;;;;;;;12.73;12.33;;;23.90;47.10;;;;;;5031801;28;20472;-52
2023/03/12 11:50:12;;;;;;;12.30;11.90;;;23.80;46.70;;;;;;5032215;28;20449;-53
2023/03/12 11:52:52;;;;;;;12.57;12.20;;;23.80;48.30;;;;;;5024994;28;20488;-58
2023/03/12 11:55:27;;;;;;;13.53;13.13;;;23.90;47.70;;;;;;5031763;28;20959;-57
2023/03/12 11:58:11;;;;;;;12.40;11.90;;;23.90;48.10;;;;;;5031443;28;21034;-58
2023/03/12 12:00:44;;;;;;;13.60;12.80;;;23.90;48.40;;;;;;5031715;28;20491;-55
2023/03/12 12:03:44;;;;;;;12.77;12.30;;;23.80;48.80;;;;;;5031633;28;20488;-54
2023/03/12 12:06:17;;;;;;;12.27;11.87;;;23.80;48.70;;;;;;5032920;28;20456;-55
2023/03/12 12:08:57;;;;;;;12.60;12.20;;;23.70;48.90;;;;;;5033217;28;20465;-51
2023/03/12 12:11:33;;;;;;;12.20;11.80;;;23.70;48.40;;;;;;5033297;28;20444;-52
2023/03/12 12:14:13;;;;;;;11.90;11.60;;;23.60;47.80;;;;;;5033248;28;20863;-54
2023/03/12 12:16:53;;;;;;;12.80;12.40;;;23.60;47.70;;;;;;5032610;28;20477;-54
2023/03/12 12:19:30;;;;;;;12.40;12.10;;;23.60;47.90;;;;;;5031436;28;20313;-52
2023/03/12 12:22:24;;;;;;;12.40;12.00;;;23.60;47.60;;;;;;5031303;28;20875;-52
2023/03/12 12:25:20;;;;;;;11.50;11.17;;;23.70;47.50;;;;;;5031395;28;20480;-56
2023/03/12 12:27:58;;;;;;;11.73;11.43;;;23.60;47.20;;;;;;5031286;28;20996;-56
2023/03/12 12:30:35;;;;;;;13.13;12.63;;;23.60;47.60;;;;;;5031397;28;20526;-51
2023/03/12 12:33:21;;;;;;;17.20;15.40;;;23.60;47.50;;;;;;5029788;28;20488;-51
2023/03/12 12:35:48;;;;;;;66.70;31.07;;;23.60;48.10;;;;;;5031002;28;20532;-55
2023/03/12 12:38:28;;;;;;;114.13;49.17;;;23.50;48.00;;;;;;5031395;28;20520;-53
2023/03/12 12:41:03;;;;;;;132.03;52.07;;;23.40;48.40;;;;;;5031295;28;20944;-54